Time;durP1;ratioP1;P1;durP2;ratioP2;P2;SDS_P1;SDS_P2;PMS_P1;PMS_P2;Temp;Humidity;BMP_temperature;BMP_pressure;BME280_temperature;BME280_humidity;BME280_pressure;Samples;Min_cycle;Max_cycle;Signal;HPM_P1;HPM_P2
2022/05/21 00:01:20;;;;;;;10.80;4.70;;;;;;;12.58;68.86;100973.35;106925;1252;62998;-64
2022/05/21 00:03:49;;;;;;;8.00;3.80;;;;;;;12.51;68.94;100974.55;106932;1251;61127;-65
2022/05/21 00:06:19;;;;;;;6.40;3.80;;;;;;;12.49;68.01;100973.65;106889;1252;74202;-65
2022/05/21 00:08:48;;;;;;;8.00;3.70;;;;;;;12.46;67.58;100975.05;106882;1253;70008;-64
2022/05/21 00:11:17;;;;;;;7.70;4.40;;;;;;;12.44;69.03;100971.73;106918;1251;68992;-65
2022/05/21 00:13:48;;;;;;;9.20;3.60;;;;;;;12.42;69.26;100972.58;106922;1253;72452;-65
2022/05/21 00:16:17;;;;;;;9.10;3.50;;;;;;;12.40;69.62;100969.79;106859;1253;61403;-65
2022/05/21 00:18:47;;;;;;;10.50;3.90;;;;;;;12.40;69.70;100969.60;107074;1252;59566;-67
2022/05/21 00:21:17;;;;;;;8.00;3.80;;;;;;;12.39;69.58;100969.65;107232;1253;72646;-67
2022/05/21 00:23:46;;;;;;;7.70;3.70;;;;;;;12.37;69.62;100971.89;106984;1253;72986;-63
2022/05/21 00:26:15;;;;;;;8.20;3.70;;;;;;;12.36;69.55;100967.48;107176;1251;70933;-65
2022/05/21 00:28:46;;;;;;;6.10;3.40;;;;;;;12.40;69.33;100967.88;107116;1253;72508;-65
2022/05/21 00:31:18;;;;;;;6.90;3.80;;;;;;;12.39;69.56;100968.13;107156;1252;62371;-66
2022/05/21 00:33:48;;;;;;;6.30;3.80;;;;;;;12.37;69.31;100972.10;107128;1251;60141;-66
2022/05/21 00:36:18;;;;;;;8.60;4.20;;;;;;;12.34;68.50;100973.23;107085;1253;72732;-65
2022/05/21 00:38:47;;;;;;;6.80;3.80;;;;;;;12.31;67.96;100976.36;107123;1250;73289;-69
2022/05/21 00:41:18;;;;;;;8.60;3.80;;;;;;;12.32;69.19;100976.30;106990;1253;71509;-71
2022/05/21 00:43:59;;;;;;;6.40;3.80;;;;;;;12.36;69.26;100968.17;107095;1251;74334;-68
2022/05/21 00:46:37;;;;;;;8.30;3.50;;;;;;;12.37;69.20;100966.70;107105;1251;59754;-67
2022/05/21 00:49:29;;;;;;;6.90;3.30;;;;;;;12.34;69.01;100962.42;107145;1253;60082;-68
2022/05/21 00:52:00;;;;;;;6.80;3.50;;;;;;;12.26;69.49;100960.55;107087;1252;73655;-69
2022/05/21 00:54:34;;;;;;;6.60;3.50;;;;;;;12.17;69.05;100963.81;107102;1251;72028;-70
2022/05/21 00:57:48;;;;;;;7.80;3.30;;;;;;;12.09;68.10;100970.40;107078;1251;69182;-68
2022/05/21 01:00:22;;;;;;;7.40;3.70;;;;;;;11.97;68.93;100967.66;107001;1251;74238;-67
2022/05/21 01:02:57;;;;;;;5.40;3.50;;;;;;;11.88;69.88;100965.77;107140;1251;61941;-66
2022/05/21 01:05:27;;;;;;;8.30;3.40;;;;;;;11.84;70.24;100963.50;106972;1254;61641;-64
2022/05/21 01:07:58;;;;;;;6.90;3.90;;;;;;;11.82;70.49;100959.14;107219;1254;74373;-64
2022/05/21 01:10:33;;;;;;;6.30;3.10;;;;;;;11.81;70.93;100950.61;107033;1254;71212;-64
2022/05/21 01:13:08;;;;;;;5.70;3.60;;;;;;;11.82;70.99;100949.02;107165;1253;67163;-66
2022/05/21 01:15:42;;;;;;;6.20;3.40;;;;;;;11.84;70.89;100946.37;107022;1253;72024;-65
2022/05/21 01:18:11;;;;;;;7.20;3.30;;;;;;;11.82;70.85;100943.89;107174;1254;62170;-64
2022/05/21 01:20:47;;;;;;;8.00;3.90;;;;;;;11.79;70.99;100942.88;107297;1253;60435;-64
2022/05/21 01:23:19;;;;;;;6.50;3.90;;;;;;;11.70;71.16;100932.20;107157;1254;72625;-67
2022/05/21 01:25:49;;;;;;;6.50;3.40;;;;;;;11.74;71.23;100940.49;107134;1254;71507;-66
2022/05/21 01:28:21;;;;;;;6.40;3.30;;;;;;;11.73;71.49;100942.45;107064;1253;70358;-64
2022/05/21 01:30:57;;;;;;;6.20;3.80;;;;;;;11.73;71.24;100944.77;106896;1254;72061;-64
2022/05/21 01:33:33;;;;;;;6.60;3.80;;;;;;;11.70;70.70;100945.67;107073;1254;62974;-64
2022/05/21 01:36:06;;;;;;;5.90;3.30;;;;;;;11.66;71.65;100942.29;106922;1254;61268;-66
2022/05/21 01:38:37;;;;;;;5.90;3.00;;;;;;;11.66;72.02;100941.60;107175;1252;73231;-65
2022/05/21 01:41:09;;;;;;;6.50;4.10;;;;;;;11.67;71.90;100937.27;107145;1254;72008;-67
2022/05/21 01:46:26;;;;;;;6.30;3.40;;;;;;;11.69;71.04;100934.39;107123;1254;74317;-66
2022/05/21 01:48:56;;;;;;;4.80;3.00;;;;;;;11.66;70.91;100933.89;107106;1253;61882;-64
2022/05/21 01:51:24;;;;;;;5.90;3.40;;;;;;;11.61;71.18;100931.84;106962;1254;61372;-65
2022/05/21 01:53:53;;;;;;;6.00;3.20;;;;;;;11.56;71.41;100931.66;107125;1254;74583;-65
2022/05/21 01:56:22;;;;;;;4.40;3.10;;;;;;;11.51;71.21;100931.88;107110;1254;72925;-67
2022/05/21 01:58:51;;;;;;;7.30;2.90;;;;;;;11.42;72.33;100930.61;107162;1254;69977;-66
2022/05/21 02:01:20;;;;;;;6.20;2.80;;;;;;;11.36;72.14;100930.86;107340;1253;74067;-69
2022/05/21 02:03:49;;;;;;;7.50;3.50;;;;;;;11.32;71.04;100932.39;107320;1254;61563;-65
2022/05/21 02:06:18;;;;;;;6.60;3.50;;;;;;;11.28;71.32;100934.02;106970;1252;58971;-68
2022/05/21 02:08:47;;;;;;;5.80;3.20;;;;;;;11.24;72.09;100935.02;106851;1252;73948;-64
2022/05/21 02:11:16;;;;;;;6.10;3.00;;;;;;;11.24;72.29;100934.86;106875;1254;71229;-66
2022/05/21 02:13:44;;;;;;;8.60;3.40;;;;;;;11.28;72.77;100931.56;106945;1254;70677;-64
2022/05/21 02:16:13;;;;;;;6.40;3.20;;;;;;;11.31;72.74;100925.96;106879;1254;72772;-64
2022/05/21 02:18:42;;;;;;;5.10;3.20;;;;;;;11.37;72.17;100930.59;106942;1254;61636;-65
2022/05/21 02:21:11;;;;;;;6.10;3.10;;;;;;;11.36;71.05;100933.43;106776;1254;59807;-65
2022/05/21 02:23:40;;;;;;;6.90;3.10;;;;;;;11.32;70.75;100931.84;106907;1253;71023;-63
2022/05/21 02:26:09;;;;;;;6.40;3.20;;;;;;;11.29;70.81;100927.86;106926;1254;72403;-63
2022/05/21 02:28:38;;;;;;;7.30;3.00;;;;;;;11.29;70.70;100934.89;106934;1253;70696;-67
2022/05/21 02:31:06;;;;;;;4.80;3.00;;;;;;;11.30;70.87;100937.05;106783;1254;74853;-69
2022/05/21 02:33:35;;;;;;;4.40;2.80;;;;;;;11.30;70.37;100936.52;106933;1252;62735;-68
2022/05/21 02:36:05;;;;;;;4.60;3.20;;;;;;;11.32;71.01;100935.17;106874;1254;60280;-68
2022/05/21 02:41:21;;;;;;;7.40;3.70;;;;;;;11.39;71.76;100940.59;106847;1252;70278;-66
2022/05/21 02:43:50;;;;;;;8.00;3.60;;;;;;;11.44;71.55;100945.79;106907;1253;70538;-67
2022/05/21 02:46:19;;;;;;;5.40;3.20;;;;;;;11.46;71.33;100948.26;106744;1254;73952;-65
2022/05/21 02:48:48;;;;;;;5.20;3.10;;;;;;;11.49;71.14;100947.38;106916;1253;60474;-65
2022/05/21 02:51:17;;;;;;;12.10;4.30;;;;;;;11.52;70.98;100948.55;107018;1254;58941;-64
2022/05/21 02:53:46;;;;;;;12.40;4.70;;;;;;;11.56;70.59;100945.98;106997;1254;73099;-64
2022/05/21 02:56:15;;;;;;;14.50;5.30;;;;;;;11.59;70.32;100947.30;106935;1253;72925;-64
2022/05/21 02:58:44;;;;;;;8.50;3.80;;;;;;;11.62;71.27;100947.42;106900;1253;71382;-65
2022/05/21 03:01:12;;;;;;;8.90;4.40;;;;;;;11.67;71.43;100946.58;106994;1251;73941;-66
2022/05/21 03:03:41;;;;;;;8.00;4.20;;;;;;;11.68;71.60;100945.98;107189;1251;61853;-67
2022/05/21 03:06:10;;;;;;;14.20;4.70;;;;;;;11.72;71.20;100941.46;106861;1253;58933;-67
2022/05/21 03:11:27;;;;;;;14.00;4.50;;;;;;;11.92;70.98;100930.12;106886;1251;71526;-65
2022/05/21 03:13:55;;;;;;;9.80;4.40;;;;;;;12.00;70.51;100928.48;106929;1251;71332;-64
2022/05/21 03:16:24;;;;;;;9.10;4.40;;;;;;;12.05;70.51;100923.19;106932;1251;72873;-64
2022/05/21 03:18:54;;;;;;;13.60;4.70;;;;;;;12.12;70.63;100920.75;107140;1251;62347;-67
2022/05/21 03:21:23;;;;;;;10.90;5.10;;;;;;;12.18;70.65;100917.86;107053;1254;61003;-69
2022/05/21 03:23:52;;;;;;;8.10;4.70;;;;;;;12.26;70.50;100923.35;107032;1251;71754;-64
2022/05/21 03:26:21;;;;;;;12.70;5.10;;;;;;;12.36;70.02;100924.84;107073;1251;72075;-67
2022/05/21 03:28:52;;;;;;;10.70;4.60;;;;;;;12.46;69.90;100925.45;107261;1250;70805;-69
2022/05/21 03:31:21;;;;;;;12.30;5.00;;;;;;;12.57;69.53;100924.31;106904;1252;71769;-68
2022/05/21 03:33:50;;;;;;;16.00;5.60;;;;;;;12.66;69.35;100917.09;106968;1251;61245;-66
2022/05/21 03:36:19;;;;;;;12.20;5.10;;;;;;;12.76;69.56;100908.33;106979;1254;61127;-65
2022/05/21 03:38:49;;;;;;;14.60;5.30;;;;;;;12.78;69.29;100898.94;107073;1253;74487;-67
2022/05/21 03:41:18;;;;;;;11.30;4.90;;;;;;;12.90;69.09;100903.02;106969;1254;71430;-67
2022/05/21 03:43:47;;;;;;;12.30;4.90;;;;;;;12.98;68.29;100895.70;106971;1254;70287;-67
2022/05/21 03:46:17;;;;;;;12.30;4.80;;;;;;;13.10;68.55;100892.55;106806;1252;74843;-67
2022/05/21 03:48:46;;;;;;;13.10;5.40;;;;;;;13.20;68.35;100884.02;107075;1254;60980;-68
2022/05/21 03:51:16;;;;;;;9.60;5.10;;;;;;;13.32;68.49;100883.44;107180;1254;61816;-69
2022/05/21 03:53:46;;;;;;;13.40;5.30;;;;;;;13.43;68.00;100887.79;107171;1254;74741;-68
2022/05/21 03:56:15;;;;;;;10.10;5.00;;;;;;;13.54;67.32;100885.65;107336;1252;71811;-69
2022/05/21 03:58:44;;;;;;;10.20;4.80;;;;;;;13.65;66.66;100881.59;107398;1252;70405;-68
2022/05/21 04:01:15;;;;;;;7.10;4.10;;;;;;;13.78;65.97;100887.67;107256;1253;74190;-69
2022/05/21 04:03:43;;;;;;;11.70;5.10;;;;;;;13.92;65.61;100883.23;106991;1254;60102;-66
2022/05/21 04:06:13;;;;;;;10.50;5.00;;;;;;;14.03;65.47;100878.79;106948;1254;61641;-69
2022/05/21 04:08:42;;;;;;;10.60;5.10;;;;;;;14.14;65.05;100866.98;106972;1254;74260;-67
2022/05/21 04:11:11;;;;;;;13.00;6.00;;;;;;;14.24;64.61;100860.46;106829;1254;71507;-68
2022/05/21 04:13:39;;;;;;;11.80;5.00;;;;;;;14.35;64.51;100852.96;106905;1253;70196;-67
2022/05/21 04:16:08;;;;;;;11.70;5.10;;;;;;;14.45;64.15;100850.84;106933;1254;75367;-69
2022/05/21 04:18:37;;;;;;;14.00;5.20;;;;;;;14.58;62.82;100852.51;107005;1252;62509;-68
2022/05/21 04:21:06;;;;;;;10.40;4.70;;;;;;;14.71;62.70;100856.86;107016;1253;59325;-69
2022/05/21 04:23:35;;;;;;;9.80;4.60;;;;;;;14.85;62.69;100856.84;107048;1253;71261;-67
2022/05/21 04:26:05;;;;;;;14.90;5.30;;;;;;;15.01;61.65;100857.34;107064;1254;69380;-68
2022/05/21 04:28:34;;;;;;;7.80;4.20;;;;;;;15.18;61.15;100852.00;107124;1253;69819;-65
2022/05/21 04:31:03;;;;;;;7.90;3.50;;;;;;;15.35;60.74;100838.52;107102;1254;72568;-68
2022/05/21 04:33:32;;;;;;;7.80;4.00;;;;;;;15.52;59.92;100836.63;107005;1254;59392;-70
2022/05/21 04:36:19;;;;;;;11.50;4.50;;;;;;;15.70;57.72;100834.86;107241;1253;59556;-67
2022/05/21 04:38:51;;;;;;;8.40;3.40;;;;;;;15.89;58.29;100834.61;107387;1252;71808;-66
2022/05/21 04:41:22;;;;;;;6.60;3.70;;;;;;;16.06;57.77;100832.35;107324;1252;70343;-68
2022/05/21 04:43:53;;;;;;;6.80;3.70;;;;;;;16.25;54.85;100838.54;107382;1252;69338;-72
2022/05/21 04:46:26;;;;;;;8.40;4.90;;;;;;;16.43;56.41;100845.89;106922;1254;72562;-68
2022/05/21 04:48:55;;;;;;;;;;;;;;;16.63;55.39;100842.60;106909;1254;61554;-69
2022/05/21 04:51:37;;;;;;;8.50;3.90;;;;;;;16.80;56.50;100842.75;107026;1253;60068;-70
2022/05/21 04:54:06;;;;;;;8.00;3.60;;;;;;;16.98;54.94;100838.71;107035;1254;72864;-71
2022/05/21 04:56:36;;;;;;;6.90;3.70;;;;;;;17.16;55.04;100841.20;107243;1252;73246;-70
2022/05/21 04:59:09;;;;;;;7.50;3.50;;;;;;;17.35;54.33;100835.21;107236;1253;68388;-69
2022/05/21 05:01:39;;;;;;;8.60;3.60;;;;;;;17.55;53.67;100830.85;106894;1254;73337;-67
2022/05/21 05:04:09;;;;;;;5.50;3.20;;;;;;;17.73;52.14;100823.52;106844;1254;62067;-66
2022/05/21 05:06:39;;;;;;;6.80;3.60;;;;;;;17.92;52.69;100821.44;107016;1254;59277;-68
2022/05/21 05:09:09;;;;;;;9.40;3.90;;;;;;;18.10;51.85;100811.83;106932;1252;74008;-67
2022/05/21 05:11:38;;;;;;;7.90;3.90;;;;;;;18.30;51.68;100808.26;106802;1251;70006;-65
2022/05/21 05:14:08;;;;;;;9.20;3.70;;;;;;;18.49;51.34;100805.55;106900;1250;69766;-69
2022/05/21 05:16:36;;;;;;;10.00;4.00;;;;;;;18.68;49.74;100809.17;106749;1253;74891;-71
2022/05/21 05:19:05;;;;;;;10.10;3.90;;;;;;;18.86;50.71;100810.49;106875;1253;59117;-70
2022/05/21 05:21:34;;;;;;;9.60;3.80;;;;;;;19.06;49.41;100805.33;107076;1251;57519;-69
2022/05/21 05:24:04;;;;;;;7.30;3.60;;;;;;;19.24;48.04;100798.63;106985;1251;62891;-70
2022/05/21 05:26:33;;;;;;;6.10;3.40;;;;;;;19.43;47.12;100795.52;106824;1251;71948;-71
2022/05/21 05:29:02;;;;;;;8.40;3.80;;;;;;;19.64;46.18;100790.13;107112;1250;70715;-72
2022/05/21 05:31:32;;;;;;;7.50;3.60;;;;;;;19.80;45.74;100789.17;107295;1251;62924;-71
2022/05/21 05:34:02;;;;;;;7.20;3.80;;;;;;;19.97;45.75;100788.64;107610;1251;62184;-73
2022/05/21 05:36:31;;;;;;;9.40;3.70;;;;;;;20.11;46.38;100782.92;107306;1251;58977;-74
2022/05/21 05:39:02;;;;;;;9.20;3.80;;;;;;;20.31;44.44;100782.52;107308;1251;62213;-75
2022/05/21 05:41:31;;;;;;;8.00;3.20;;;;;;;20.50;43.32;100781.06;107069;1251;72306;-72
2022/05/21 05:44:00;;;;;;;5.30;2.80;;;;;;;20.68;42.61;100777.66;107181;1251;70180;-74
2022/05/21 05:46:28;;;;;;;9.80;3.30;;;;;;;20.83;41.82;100775.27;107106;1251;74603;-71
2022/05/21 05:48:57;;;;;;;7.50;2.90;;;;;;;21.00;41.01;100777.48;107164;1251;61505;-71
2022/05/21 05:51:27;;;;;;;7.60;2.60;;;;;;;21.16;40.60;100778.55;106950;1251;61218;-70
2022/05/21 05:53:56;;;;;;;3.50;2.40;;;;;;;21.35;41.17;100781.88;107085;1251;73488;-72
2022/05/21 05:56:25;;;;;;;5.30;2.40;;;;;;;21.50;40.84;100778.92;107152;1251;71313;-70
2022/05/21 06:01:42;;;;;;;5.30;2.50;;;;;;;21.82;40.43;100786.61;107091;1249;71840;-70
2022/05/21 06:04:11;;;;;;;9.00;3.00;;;;;;;21.99;39.91;100784.23;106976;1252;58738;-70
2022/05/21 06:06:40;;;;;;;6.00;2.40;;;;;;;22.22;38.18;100784.77;106973;1251;58736;-70
2022/05/21 06:09:10;;;;;;;5.20;2.80;;;;;;;22.27;38.45;100781.98;106997;1251;72842;-69
2022/05/21 06:11:40;;;;;;;6.00;2.20;;;;;;;22.33;38.55;100776.48;107102;1251;61691;-71
2022/05/21 06:14:09;;;;;;;4.90;2.50;;;;;;;22.40;39.16;100775.38;106964;1251;62259;-70
2022/05/21 06:16:38;;;;;;;5.10;2.60;;;;;;;22.50;38.90;100771.33;107001;1251;62986;-71
2022/05/21 06:19:07;;;;;;;6.40;2.80;;;;;;;22.65;38.10;100767.11;106927;1254;58964;-73
2022/05/21 06:21:36;;;;;;;4.30;2.10;;;;;;;22.73;37.21;100765.22;106956;1251;57470;-72
2022/05/21 06:24:05;;;;;;;3.00;2.40;;;;;;;22.84;36.85;100752.23;106905;1252;74043;-70
2022/05/21 06:26:34;;;;;;;5.30;2.40;;;;;;;22.87;37.39;100745.91;107151;1251;62034;-70
2022/05/21 06:29:03;;;;;;;6.70;2.70;;;;;;;22.98;36.64;100732.80;107129;1251;60693;-73
2022/05/21 06:31:32;;;;;;;3.50;2.00;;;;;;;23.12;36.00;100737.07;106995;1251;74429;-73
2022/05/21 06:34:01;;;;;;;3.20;2.00;;;;;;;23.23;35.07;100731.55;106933;1251;62111;-72
2022/05/21 06:36:29;;;;;;;4.30;2.20;;;;;;;23.31;34.00;100731.92;106944;1251;61616;-71
2022/05/21 06:38:58;;;;;;;5.90;2.60;;;;;;;23.33;33.78;100729.16;106864;1252;63388;-71
2022/05/21 06:41:30;;;;;;;4.00;2.30;;;;;;;23.34;34.28;100726.00;107017;1252;62037;-73
2022/05/21 06:43:58;;;;;;;6.90;2.20;;;;;;;23.57;33.59;100726.82;107100;1251;69820;-72
2022/05/21 06:46:27;;;;;;;5.60;2.40;;;;;;;23.63;33.68;100720.39;107087;1251;64483;-73
2022/05/21 06:48:56;;;;;;;5.00;2.30;;;;;;;23.77;33.09;100718.20;107187;1251;59024;-73
2022/05/21 06:51:25;;;;;;;9.80;3.00;;;;;;;23.92;32.91;100712.48;107082;1251;59105;-72
2022/05/21 06:53:54;;;;;;;3.90;2.20;;;;;;;23.99;33.10;100711.45;107152;1251;62895;-72
2022/05/21 06:56:23;;;;;;;5.40;2.50;;;;;;;24.15;32.50;100711.48;107236;1251;73044;-75
2022/05/21 06:58:52;;;;;;;4.30;2.40;;;;;;;24.14;32.79;100709.90;107258;1251;71264;-70
2022/05/21 07:01:21;;;;;;;4.40;2.40;;;;;;;24.24;32.12;100710.61;107096;1250;73515;-70
2022/05/21 07:03:50;;;;;;;4.40;2.20;;;;;;;24.27;31.32;100703.92;107054;1251;59001;-70
2022/05/21 07:09:06;;;;;;;2.80;2.00;;;;;;;24.21;31.44;100690.64;107020;1252;62128;-70
2022/05/21 07:11:37;;;;;;;3.60;2.10;;;;;;;24.28;31.42;100685.70;107092;1251;60838;-71
2022/05/21 07:14:06;;;;;;;4.50;2.30;;;;;;;24.41;31.09;100677.09;107082;1251;71293;-73
2022/05/21 07:16:38;;;;;;;4.90;2.70;;;;;;;24.47;31.39;100676.28;107502;1251;73641;-76
2022/05/21 07:19:07;;;;;;;5.40;2.30;;;;;;;24.69;31.34;100679.52;109327;1244;59970;-79
2022/05/21 07:21:44;;;;;;;3.50;2.50;;;;;;;24.82;30.70;100678.95;109306;1244;60847;31
2022/05/21 07:24:14;;;;;;;6.00;2.30;;;;;;;24.75;30.92;100659.30;107612;1246;72987;-76
2022/05/21 07:26:46;;;;;;;6.50;2.20;;;;;;;24.95;31.01;100675.33;107168;1257;72764;-75
2022/05/21 07:29:16;;;;;;;6.10;2.80;;;;;;;25.08;31.32;100665.85;107138;1255;70283;-78
2022/05/21 07:31:45;;;;;;;5.40;2.10;;;;;;;25.24;31.09;100662.59;108414;1254;63913;-78
2022/05/21 07:34:14;;;;;;;5.40;2.40;;;;;;;25.38;30.92;100658.13;108212;1255;58278;-78
2022/05/21 07:36:43;;;;;;;5.70;2.80;;;;;;;25.47;30.79;100653.41;107430;1257;59073;-76
2022/05/21 07:39:12;;;;;;;10.30;2.70;;;;;;;25.70;30.56;100645.95;107722;1254;72877;-78
2022/05/21 07:41:41;;;;;;;6.00;2.20;;;;;;;25.78;30.98;100637.83;107776;1254;72301;-78
2022/05/21 07:44:12;;;;;;;5.10;2.30;;;;;;;26.05;30.64;100638.31;108509;1254;70596;-78
2022/05/21 07:46:42;;;;;;;4.50;2.30;;;;;;;26.16;30.33;100624.58;107535;1254;73490;-78
2022/05/21 07:49:10;;;;;;;5.20;2.50;;;;;;;26.22;30.17;100606.63;107812;1254;60935;-78
2022/05/21 07:51:39;;;;;;;9.40;4.90;;;;;;;26.29;29.85;100611.20;107914;1254;57531;-78
2022/05/21 07:54:08;;;;;;;5.40;2.40;;;;;;;26.28;29.87;100612.02;108394;1254;426275;-80
2022/05/21 07:56:38;;;;;;;4.50;2.50;;;;;;;26.34;30.16;100618.33;108136;1254;60935;-79
2022/05/21 07:59:06;;;;;;;4.50;2.50;;;;;;;26.42;29.94;100631.52;107717;1254;71048;-78
2022/05/21 08:01:35;;;;;;;4.00;2.00;;;;;;;26.60;29.38;100630.25;107714;1254;63651;-78
2022/05/21 08:04:04;;;;;;;5.80;2.40;;;;;;;26.57;29.33;100620.25;108341;1254;57939;-76
2022/05/21 08:06:34;;;;;;;5.90;2.40;;;;;;;26.50;29.81;100607.16;107782;1254;57651;-77
2022/05/21 08:09:03;;;;;;;4.70;2.20;;;;;;;26.49;30.04;100608.08;108472;1254;62254;-81
2022/05/21 08:11:32;;;;;;;5.90;2.70;;;;;;;26.23;30.61;100611.44;108530;1255;60796;-78
2022/05/21 08:14:01;;;;;;;5.40;3.30;;;;;;;26.21;30.73;100619.77;109054;1254;70594;-83
2022/05/21 08:16:32;;;;;;;5.70;2.70;;;;;;;26.01;31.53;100632.73;108936;1255;73798;-82
2022/05/21 08:19:02;;;;;;;7.40;3.10;;;;;;;25.72;32.14;100636.52;108674;1255;58739;-81
2022/05/21 08:21:31;;;;;;;13.70;2.90;;;;;;;25.74;32.51;100628.89;108443;1257;60566;-79
2022/05/21 08:26:56;;;;;;;4.10;2.60;;;;;;;26.26;31.54;100616.98;108733;1254;61212;-81
2022/05/21 08:29:33;;;;;;;6.30;3.00;;;;;;;26.18;31.81;100609.96;108902;1254;59235;-77
2022/05/21 08:32:04;;;;;;;4.10;2.00;;;;;;;26.19;32.01;100615.10;108773;1255;73137;-80
2022/05/21 08:34:33;;;;;;;5.70;2.30;;;;;;;26.35;31.51;100615.90;108927;1254;58020;-81
2022/05/21 08:37:03;;;;;;;7.00;2.40;;;;;;;26.43;30.95;100612.48;108707;1254;59075;-80
2022/05/21 08:39:31;;;;;;;5.90;2.50;;;;;;;26.58;30.09;100598.57;108694;1254;73827;-80
2022/05/21 08:42:15;;;;;;;4.30;1.90;;;;;;;26.62;30.43;100595.82;109066;1254;61706;-78
2022/05/21 08:44:51;;;;;;;7.40;2.50;;;;;;;26.73;29.98;100596.10;108938;1254;59237;-80
2022/05/21 08:47:47;;;;;;;4.00;2.30;;;;;;;26.84;29.41;100594.10;109026;1254;73918;-81
2022/05/21 08:50:21;;;;;;;5.50;2.20;;;;;;;26.88;29.35;100591.30;107649;1255;58387;-76
2022/05/21 08:53:04;;;;;;;6.60;2.40;;;;;;;26.93;29.58;100585.84;108474;1255;60752;-78
2022/05/21 08:55:39;;;;;;;4.70;2.10;;;;;;;27.12;29.21;100584.35;108292;1254;62767;-78
2022/05/21 08:58:33;;;;;;;2.90;1.90;;;;;;;27.30;29.12;100571.76;108298;1254;72804;-79
2022/05/21 09:01:02;;;;;;;3.30;2.10;;;;;;;27.38;28.81;100569.88;108837;1254;70208;-80
2022/05/21 09:03:31;;;;;;;3.10;2.10;;;;;;;27.39;28.19;100573.21;108591;1256;62988;-79
2022/05/21 09:06:18;;;;;;;4.90;2.60;;;;;;;27.48;27.90;100566.05;108437;1257;60479;-79
2022/05/21 09:09:53;;;;;;;4.00;2.30;;;;;;;27.66;27.85;100560.75;108110;1255;60800;-76
2022/05/21 09:12:36;;;;;;;5.90;2.30;;;;;;;27.73;27.75;100557.58;106604;1260;73436;-76
2022/05/21 09:15:09;;;;;;;3.00;2.30;;;;;;;27.84;27.85;100546.11;107594;1254;71897;-76
2022/05/21 09:17:42;;;;;;;5.30;2.60;;;;;;;28.05;27.35;100543.98;107409;1254;70401;-75
2022/05/21 09:20:20;;;;;;;4.30;2.70;;;;;;;28.22;27.30;100545.05;108516;1244;62543;-80
2022/05/21 09:22:58;;;;;;;6.90;2.40;;;;;;;28.40;26.76;100538.38;109311;1252;59526;-81
2022/05/21 09:26:08;;;;;;;4.40;2.30;;;;;;;28.67;26.49;100533.10;108335;1256;57899;-79
2022/05/21 09:28:39;;;;;;;4.90;2.50;;;;;;;28.96;26.12;100526.17;108014;1254;62520;-73
2022/05/21 09:31:09;;;;;;;3.70;2.10;;;;;;;29.11;25.67;100520.85;108707;1256;72809;-73
2022/05/21 09:33:47;;;;;;;8.30;2.40;;;;;;;29.15;25.61;100514.20;107368;1256;60412;-76
2022/05/21 09:36:31;;;;;;;6.40;2.50;;;;;;;29.14;25.49;100504.02;107298;1257;62532;-74
2022/05/21 09:39:00;;;;;;;4.20;2.20;;;;;;;29.29;25.31;100501.69;106865;1256;61293;-74
2022/05/21 09:41:32;;;;;;;2.60;1.70;;;;;;;29.46;24.91;100497.65;107332;1257;62752;-73
2022/05/21 09:47:16;;;;;;;6.10;2.20;;;;;;;29.63;24.95;100496.77;106840;1256;63501;-74
2022/05/21 09:50:05;;;;;;;3.10;2.10;;;;;;;29.57;25.48;100495.35;106954;1257;70545;-71
2022/05/21 09:52:35;;;;;;;4.00;2.20;;;;;;;29.58;25.42;100488.98;106738;1256;73494;-72
2022/05/21 09:55:18;;;;;;;3.40;2.00;;;;;;;29.64;25.42;100481.48;106654;1257;61770;-70
2022/05/21 09:57:47;;;;;;;5.30;2.00;;;;;;;29.71;25.53;100481.39;106990;1254;60366;-77
2022/05/21 10:00:26;;;;;;;4.90;2.10;;;;;;;29.79;25.44;100475.40;107087;1254;62776;-71
2022/05/21 10:03:00;;;;;;;3.80;2.40;;;;;;;29.80;25.49;100481.73;107029;1253;72575;-72
2022/05/21 10:05:35;;;;;;;3.70;2.10;;;;;;;29.80;24.98;100475.09;107203;1254;70995;-73
2022/05/21 10:12:33;;;;;;;4.90;2.20;;;;;;;29.68;24.37;100466.70;108545;1246;62138;31
2022/05/21 10:15:19;;;;;;;4.80;2.10;;;;;;;29.82;24.46;100458.21;108374;1257;61142;-78
2022/05/21 10:18:23;;;;;;;5.00;2.50;;;;;;;29.95;24.59;100461.98;107145;1257;62839;-75
2022/05/21 10:21:01;;;;;;;9.60;2.20;;;;;;;30.39;24.10;100446.13;107155;1257;61575;-81
2022/05/21 10:24:40;;;;;;;8.50;3.30;;;;;;;30.71;23.47;100446.45;107086;1257;60329;-75
2022/05/21 10:27:53;;;;;;;12.50;5.70;;;;;;;31.01;23.13;100443.77;106413;1257;63706;-75
2022/05/21 10:31:05;;;;;;;8.30;3.40;;;;;;;31.10;22.39;100437.58;107182;1257;58968;-78
2022/05/21 10:33:40;;;;;;;4.70;2.40;;;;;;;31.64;22.29;100437.92;107468;1257;61217;-72
2022/05/21 10:36:36;;;;;;;6.20;2.90;;;;;;;31.87;21.26;100436.39;107055;1257;73718;-75
2022/05/21 10:39:36;;;;;;;8.90;3.30;;;;;;;32.08;21.26;100441.86;106816;1257;60910;-81
2022/05/21 10:42:57;;;;;;;6.50;2.40;;;;;;;32.33;21.02;100421.45;107213;1257;59891;-79
2022/05/21 10:45:38;;;;;;;3.70;2.50;;;;;;;32.42;21.37;100424.64;107541;1257;63333;-74
2022/05/21 10:48:48;;;;;;;3.50;2.00;;;;;;;32.47;21.12;100415.58;106917;1257;59362;-71
2022/05/21 10:52:08;;;;;;;4.00;2.30;;;;;;;32.58;20.86;100409.04;106416;1257;61479;-71
2022/05/21 10:54:51;;;;;;;2.50;1.90;;;;;;;32.60;21.22;100402.40;106487;1260;63511;-72
2022/05/21 10:57:53;;;;;;;5.50;2.40;;;;;;;32.98;20.96;100402.86;106765;1257;62647;-73
2022/05/21 11:00:59;;;;;;;4.30;1.90;;;;;;;33.43;20.75;100397.19;107030;1257;71169;-72
2022/05/21 11:03:37;;;;;;;;;;;;;;;33.71;20.41;100390.86;107030;1257;63088;-72
2022/05/21 11:06:19;;;;;;;6.00;2.50;;;;;;;34.05;20.12;100387.80;106654;1257;60630;-73
2022/05/21 11:09:34;;;;;;;5.10;2.00;;;;;;;34.45;19.37;100385.74;106714;1257;59538;-72
2022/05/21 11:12:18;;;;;;;7.60;2.50;;;;;;;34.67;19.24;100372.53;106983;1257;62240;-75
2022/05/21 11:14:56;;;;;;;9.60;2.40;;;;;;;34.73;19.23;100367.19;106669;1260;62781;-70
2022/05/21 11:17:52;;;;;;;5.70;2.50;;;;;;;34.46;19.11;100367.58;106835;1257;70527;-70
2022/05/21 11:20:35;;;;;;;5.60;1.90;;;;;;;33.78;20.04;100364.63;107514;1257;75073;-77
2022/05/21 11:23:21;;;;;;;3.80;2.00;;;;;;;33.59;19.89;100365.61;108071;1248;58740;-74
2022/05/21 11:26:10;;;;;;;3.20;2.00;;;;;;;33.20;20.34;100356.76;107227;1257;59271;-77
2022/05/21 11:29:17;;;;;;;3.60;2.20;;;;;;;32.82;20.51;100357.81;107199;1255;72693;-76
2022/05/21 11:37:53;;;;;;;4.70;2.00;;;;;;;32.46;20.89;100340.27;107061;1257;72103;-74
2022/05/21 11:44:55;;;;;;;3.50;2.20;;;;;;;32.46;20.91;100330.20;107033;1254;61107;-77
2022/05/21 11:46:49;;;;;;;6.30;2.90;;;;;;;32.37;20.76;100328.82;106906;1256;63738;-75
2022/05/21 11:49:27;;;;;;;8.70;2.90;;;;;;;32.20;21.25;100325.00;106813;1257;71511;-77
2022/05/21 11:51:59;;;;;;;3.80;1.70;;;;;;;32.17;21.65;100326.08;107022;1255;60760;-76
2022/05/21 11:54:49;;;;;;;5.10;2.60;;;;;;;32.29;21.38;100318.30;106977;1256;62468;-77
2022/05/21 11:57:41;;;;;;;5.70;2.60;;;;;;;32.33;21.30;100309.25;107074;1254;59037;-76
2022/05/21 12:00:16;;;;;;;8.40;2.60;;;;;;;32.37;21.54;100307.54;107121;1257;61439;-77
2022/05/21 12:02:53;;;;;;;6.60;2.40;;;;;;;32.36;21.61;100303.05;107169;1254;73657;-77
2022/05/21 12:05:34;;;;;;;3.30;2.20;;;;;;;32.26;21.77;100301.58;107043;1256;61607;-78
2022/05/21 12:08:36;;;;;;;8.30;2.50;;;;;;;32.03;22.00;100308.17;106957;1256;60533;-77
2022/05/21 12:11:12;;;;;;;4.60;2.30;;;;;;;31.98;22.07;100312.02;107062;1254;74041;-77
2022/05/21 12:14:18;;;;;;;3.50;2.20;;;;;;;32.03;22.02;100315.29;107020;1255;58985;-78
2022/05/21 12:16:52;;;;;;;4.70;2.50;;;;;;;31.95;22.07;100310.02;107014;1257;60331;-74
2022/05/21 12:20:07;;;;;;;4.70;2.10;;;;;;;31.87;22.30;100312.01;107342;1256;62705;-75
2022/05/21 12:22:37;;;;;;;6.10;2.40;;;;;;;31.63;22.25;100315.73;107130;1260;72201;-76
2022/05/21 12:25:30;;;;;;;6.30;2.30;;;;;;;31.60;22.33;100311.92;107823;1260;70220;-80